Time;durP1;ratioP1;P1;durP2;ratioP2;P2;SDS_P1;SDS_P2;PMS_P1;PMS_P2;Temp;Humidity;BMP_temperature;BMP_pressure;BME280_temperature;BME280_humidity;BME280_pressure;Samples;Min_cycle;Max_cycle;Signal;HPM_P1;HPM_P2
2023/04/21 00:01:09;;;;;;;36.33;31.27;;;9.10;99.90;;;;;;4901671;29;20411;-96
2023/04/21 00:03:38;;;;;;;34.60;30.98;;;9.00;99.90;;;;;;4906545;29;20412;-92
2023/04/21 00:06:11;;;;;;;38.28;31.45;;;9.00;99.90;;;;;;4899406;29;20411;-94
2023/04/21 00:08:39;;;;;;;34.22;29.98;;;8.90;99.90;;;;;;4899920;29;21008;-93
2023/04/21 00:11:06;;;;;;;35.58;30.77;;;8.90;99.90;;;;;;4900159;29;20420;-93
2023/04/21 00:13:33;;;;;;;33.38;29.83;;;8.80;99.90;;;;;;4903636;29;20419;-93
2023/04/21 00:16:02;;;;;;;32.50;29.08;;;9.10;99.90;;;;;;4904543;29;20817;-94
2023/04/21 00:18:28;;;;;;;31.97;27.80;;;8.80;99.90;;;;;;4905754;29;21100;-93
2023/04/21 00:20:54;;;;;;;32.27;28.60;;;9.50;99.90;;;;;;4905013;29;20427;-93
2023/04/21 00:23:23;;;;;;;32.78;29.15;;;8.90;99.90;;;;;;4904031;29;20464;-93
2023/04/21 00:25:48;;;;;;;30.05;26.83;;;8.90;99.90;;;;;;4903075;29;20511;-93
2023/04/21 00:28:23;;;;;;;32.35;28.40;;;8.80;99.90;;;;;;4901777;29;20408;-94
2023/04/21 00:33:53;;;;;;;32.80;27.60;;;8.80;99.90;;;;;;4924206;29;20821;-94
2023/04/21 00:36:33;;;;;;;30.65;26.80;;;9.00;99.90;;;;;;4908587;29;20403;-95
2023/04/21 00:38:59;;;;;;;31.35;27.35;;;8.90;99.90;;;;;;4907700;29;20423;-94
2023/04/21 00:41:28;;;;;;;28.40;25.00;;;8.70;99.90;;;;;;4908086;29;20463;-94
2023/04/21 00:44:11;;;;;;;28.95;24.98;;;8.70;99.90;;;;;;4909828;29;20503;-96
2023/04/21 00:46:37;;;;;;;28.52;25.42;;;8.80;99.90;;;;;;4911251;29;20423;-93
2023/04/21 00:49:07;;;;;;;28.58;24.35;;;8.60;99.90;;;;;;4908845;29;20403;-94
2023/04/21 00:51:41;;;;;;;30.00;24.90;;;8.60;99.90;;;;;;4906953;29;20431;-95
2023/04/21 00:54:08;;;;;;;29.70;25.50;;;8.60;99.90;;;;;;4904350;29;20430;-94
2023/04/21 00:56:36;;;;;;;28.30;24.90;;;8.80;99.90;;;;;;4904161;29;21030;-96
2023/04/21 00:59:11;;;;;;;30.55;25.52;;;8.50;99.90;;;;;;4903526;29;20463;-95
2023/04/21 01:01:40;;;;;;;30.95;24.92;;;8.40;99.90;;;;;;4903272;29;20503;-94
2023/04/21 01:04:09;;;;;;;30.13;25.67;;;8.30;99.90;;;;;;4906954;29;20412;-94
2023/04/21 01:06:35;;;;;;;29.13;26.02;;;8.90;99.90;;;;;;4902489;29;20419;-91
2023/04/21 01:09:03;;;;;;;29.30;25.30;;;8.50;99.90;;;;;;4899005;29;20825;-95
2023/04/21 01:11:35;;;;;;;29.98;26.63;;;8.10;99.90;;;;;;4907519;29;20466;-95
2023/04/21 01:14:00;;;;;;;33.00;25.98;;;8.20;99.90;;;;;;4907385;29;20482;-94
2023/04/21 01:16:26;;;;;;;31.17;26.85;;;8.20;99.90;;;;;;4906766;29;20463;-93
2023/04/21 01:19:00;;;;;;;34.15;27.20;;;8.20;99.90;;;;;;4906876;29;20419;-94
2023/04/21 01:21:50;;;;;;;31.33;26.58;;;8.00;99.90;;;;;;4905027;29;20443;-94
2023/04/21 01:24:37;;;;;;;31.40;26.45;;;8.00;99.90;;;;;;4904955;29;20430;-94
2023/04/21 01:27:29;;;;;;;33.85;27.83;;;8.00;99.90;;;;;;4911025;29;20474;-94
2023/04/21 01:29:55;;;;;;;31.75;27.02;;;8.10;99.90;;;;;;4908040;29;20416;-95
2023/04/21 01:32:33;;;;;;;33.33;28.27;;;7.90;99.90;;;;;;4906266;29;20411;-93
2023/04/21 01:35:02;;;;;;;31.45;27.83;;;7.90;99.90;;;;;;4905781;29;20486;-95
2023/04/21 01:38:09;;;;;;;33.00;27.92;;;7.90;99.90;;;;;;4912141;29;20428;-96
2023/04/21 01:40:56;;;;;;;33.22;28.65;;;7.80;99.90;;;;;;4903303;29;20735;-95
2023/04/21 01:43:24;;;;;;;35.22;29.25;;;7.80;99.90;;;;;;4910290;29;20518;-94
2023/04/21 01:45:52;;;;;;;33.50;28.93;;;7.90;99.90;;;;;;4907189;29;20475;-96
2023/04/21 01:48:27;;;;;;;34.60;28.88;;;7.80;99.90;;;;;;4908557;29;20411;-96
2023/04/21 01:50:56;;;;;;;33.75;28.75;;;7.70;99.90;;;;;;4907046;29;20427;-94
2023/04/21 01:53:26;;;;;;;34.42;29.00;;;7.70;99.90;;;;;;4907932;29;20449;-95
2023/04/21 01:56:31;;;;;;;;;;;;;;;;;;;;;
2023/04/21 01:59:11;;;;;;;32.63;28.00;;;7.80;99.90;;;;;;4920796;29;20408;-94
2023/04/21 02:02:00;;;;;;;32.97;29.48;;;7.80;99.90;;;;;;4918708;29;20447;-95
2023/04/21 02:04:38;;;;;;;35.20;29.48;;;7.50;99.90;;;;;;4905915;29;20423;-96
2023/04/21 02:07:03;;;;;;;33.97;28.95;;;7.80;99.90;;;;;;4905638;29;20419;-95
2023/04/21 02:09:38;;;;;;;34.25;29.83;;;7.70;99.90;;;;;;4905996;29;20419;-93
2023/04/21 02:12:13;;;;;;;35.40;30.38;;;7.70;99.90;;;;;;4912205;29;20412;-95
2023/04/21 02:14:45;;;;;;;35.13;29.20;;;7.60;99.90;;;;;;4907135;29;20423;-96
2023/04/21 02:17:10;;;;;;;32.25;27.27;;;7.50;99.90;;;;;;4901729;29;20416;-95
2023/04/21 02:19:52;;;;;;;33.95;27.77;;;7.50;99.90;;;;;;4919794;29;20430;-93
2023/04/21 02:22:27;;;;;;;32.15;28.63;;;7.60;99.90;;;;;;4904025;29;20564;-95
2023/04/21 02:24:56;;;;;;;31.92;27.67;;;7.70;99.90;;;;;;4899150;29;20574;-93
2023/04/21 02:27:28;;;;;;;31.13;27.20;;;7.60;99.90;;;;;;4899508;29;20423;-94
2023/04/21 02:30:02;;;;;;;32.40;27.75;;;7.40;99.90;;;;;;4899917;29;20475;-94
2023/04/21 02:32:28;;;;;;;34.13;28.17;;;7.30;99.90;;;;;;4900636;29;20419;-93
2023/04/21 02:35:14;;;;;;;34.55;28.05;;;7.60;99.90;;;;;;4902528;29;20411;-95
2023/04/21 02:37:49;;;;;;;34.60;29.23;;;7.70;99.90;;;;;;4900237;29;20404;-93
2023/04/21 02:40:21;;;;;;;32.80;28.88;;;7.70;99.90;;;;;;4902335;29;20487;-95
2023/04/21 02:42:55;;;;;;;33.28;27.30;;;7.40;99.90;;;;;;4903063;29;20604;-92
2023/04/21 02:45:21;;;;;;;32.63;28.00;;;7.60;99.90;;;;;;4900842;29;20459;-92
2023/04/21 02:47:47;;;;;;;35.35;28.25;;;7.50;99.90;;;;;;4900901;29;20465;-93
2023/04/21 02:50:13;;;;;;;35.03;28.55;;;7.50;99.90;;;;;;4900798;29;20449;-93
2023/04/21 02:53:06;;;;;;;32.70;27.95;;;7.60;99.90;;;;;;4903294;29;20451;-93
2023/04/21 02:55:34;;;;;;;31.88;28.42;;;7.40;99.90;;;;;;4905590;29;20917;-94
2023/04/21 02:58:06;;;;;;;33.07;28.57;;;7.30;99.90;;;;;;4904087;29;20426;-92
2023/04/21 03:00:32;;;;;;;33.17;28.35;;;7.40;99.90;;;;;;4903749;29;20472;-92
2023/04/21 03:02:58;;;;;;;32.13;28.67;;;7.50;99.90;;;;;;4904819;29;20939;-94
2023/04/21 03:05:32;;;;;;;33.73;29.53;;;7.20;99.90;;;;;;4911009;29;20416;-94
2023/04/21 03:08:00;;;;;;;33.27;28.97;;;7.70;99.90;;;;;;4906903;29;20455;-94
2023/04/21 03:10:35;;;;;;;34.33;29.23;;;7.30;99.90;;;;;;4904190;29;20420;-94
2023/04/21 03:13:15;;;;;;;32.30;28.67;;;7.30;99.90;;;;;;4905751;29;20427;-95
2023/04/21 03:15:46;;;;;;;35.87;29.47;;;7.30;99.90;;;;;;4903837;29;20432;-95
2023/04/21 03:18:21;;;;;;;31.35;28.02;;;7.40;99.90;;;;;;4904067;29;20455;-94
2023/04/21 03:20:47;;;;;;;34.25;29.13;;;7.30;99.90;;;;;;4904538;29;20542;-94
2023/04/21 03:23:19;;;;;;;35.85;29.10;;;7.40;99.90;;;;;;4904171;29;20535;-95
2023/04/21 03:25:45;;;;;;;32.33;28.58;;;7.50;99.90;;;;;;4902237;29;20443;-94
2023/04/21 03:28:28;;;;;;;33.10;29.60;;;7.30;99.90;;;;;;4903273;29;20420;-95
2023/04/21 03:30:54;;;;;;;33.58;29.70;;;7.60;99.90;;;;;;4902615;29;20426;-93
2023/04/21 03:33:32;;;;;;;32.67;29.10;;;7.40;99.90;;;;;;4903758;29;20412;-95
2023/04/21 03:36:07;;;;;;;33.10;28.80;;;7.20;99.90;;;;;;4901962;29;20490;-94
2023/04/21 03:38:36;;;;;;;34.40;29.02;;;7.40;99.90;;;;;;4900154;29;20451;-94
2023/04/21 03:41:08;;;;;;;32.00;28.50;;;7.30;99.90;;;;;;4903269;29;20422;-94
2023/04/21 03:43:35;;;;;;;34.03;29.40;;;7.40;99.90;;;;;;4902528;29;20447;-93
2023/04/21 03:46:02;;;;;;;32.20;28.50;;;7.40;99.90;;;;;;4899151;29;20416;-94
2023/04/21 03:48:43;;;;;;;32.25;27.88;;;7.50;99.90;;;;;;4900961;29;20420;-95
2023/04/21 03:51:09;;;;;;;33.22;29.33;;;7.50;99.90;;;;;;4905773;29;20483;-96
2023/04/21 03:53:35;;;;;;;34.58;29.25;;;7.40;99.90;;;;;;4905317;29;20411;-93
2023/04/21 03:56:10;;;;;;;32.42;28.98;;;7.50;99.90;;;;;;4902295;29;20404;-94
2023/04/21 03:58:40;;;;;;;34.75;27.55;;;7.40;99.90;;;;;;4904786;29;20420;-94
2023/04/21 04:01:18;;;;;;;32.13;28.20;;;7.50;99.90;;;;;;4922475;29;20499;-94
2023/04/21 04:04:06;;;;;;;30.02;26.92;;;7.50;99.90;;;;;;4904957;29;20416;-94
2023/04/21 04:06:52;;;;;;;33.05;26.50;;;7.40;99.90;;;;;;4908007;29;20431;-94
2023/04/21 04:09:33;;;;;;;34.90;28.00;;;7.40;99.90;;;;;;4892183;29;20419;-94
2023/04/21 04:12:25;;;;;;;28.95;25.75;;;7.40;99.90;;;;;;4906476;29;20420;-94
2023/04/21 04:14:53;;;;;;;30.13;24.67;;;7.50;99.90;;;;;;4901464;29;20443;-95
2023/04/21 04:17:25;;;;;;;29.38;25.00;;;7.40;99.90;;;;;;4905130;29;20917;-95
2023/04/21 04:19:53;;;;;;;29.40;24.83;;;7.50;99.90;;;;;;4905753;29;20419;-95
2023/04/21 04:22:19;;;;;;;26.50;23.63;;;7.40;99.90;;;;;;4904575;29;20450;-94
2023/04/21 04:24:56;;;;;;;26.83;23.02;;;7.60;99.90;;;;;;4905716;29;20445;-95
2023/04/21 04:27:25;;;;;;;25.70;21.67;;;7.50;99.90;;;;;;4905961;29;20463;-95
2023/04/21 04:29:54;;;;;;;28.15;22.60;;;7.50;99.90;;;;;;4904116;29;20423;-93
2023/04/21 04:32:30;;;;;;;26.80;22.67;;;7.70;99.90;;;;;;4903992;29;20511;-94
2023/04/21 04:35:14;;;;;;;28.23;22.58;;;7.90;99.90;;;;;;4904301;29;20419;-94
2023/04/21 04:37:40;;;;;;;25.50;20.85;;;7.60;99.90;;;;;;4897431;29;20448;-94
2023/04/21 04:40:12;;;;;;;26.17;20.85;;;7.70;99.90;;;;;;4903603;29;20424;-95
2023/04/21 04:42:48;;;;;;;23.92;20.58;;;7.60;99.90;;;;;;4915622;29;20495;-94
2023/04/21 04:45:20;;;;;;;24.10;20.97;;;7.80;99.90;;;;;;4901148;29;20412;-92
2023/04/21 04:47:49;;;;;;;24.33;20.30;;;8.00;99.90;;;;;;4888494;29;20420;-93
2023/04/21 04:50:18;;;;;;;22.53;19.73;;;7.80;99.90;;;;;;4895669;29;20425;-94
2023/04/21 04:52:56;;;;;;;24.30;20.48;;;7.80;99.90;;;;;;4886218;29;20421;-94
2023/04/21 04:55:22;;;;;;;24.63;21.37;;;7.80;99.90;;;;;;4885137;29;20433;-94
2023/04/21 04:58:08;;;;;;;22.42;19.70;;;7.90;99.90;;;;;;4872897;29;20433;-93
2023/04/21 05:00:36;;;;;;;25.77;20.08;;;8.10;99.90;;;;;;4805458;29;20442;-93
2023/04/21 05:03:02;;;;;;;24.38;21.10;;;7.60;99.90;;;;;;4870699;29;20459;-93
2023/04/21 05:06:08;;;;;;;23.17;19.08;;;8.00;99.90;;;;;;4878479;29;20413;-91
2023/04/21 05:08:34;;;;;;;23.23;18.92;;;8.10;99.90;;;;;;4880721;29;20426;-96
2023/04/21 05:10:59;;;;;;;22.80;19.23;;;8.20;99.90;;;;;;4891248;29;20754;-94
2023/04/21 05:13:33;;;;;;;23.00;17.80;;;8.30;99.90;;;;;;4900278;29;20496;-94
2023/04/21 05:16:05;;;;;;;20.67;17.30;;;8.00;99.90;;;;;;4902211;29;20400;-94
2023/04/21 05:18:31;;;;;;;22.10;17.83;;;8.30;99.90;;;;;;4903686;29;20411;-93
2023/04/21 05:21:03;;;;;;;22.30;17.00;;;8.50;99.90;;;;;;4901974;29;20407;-94
2023/04/21 05:23:38;;;;;;;26.52;17.38;;;8.30;99.90;;;;;;4905099;29;20436;-94
2023/04/21 05:26:04;;;;;;;20.10;17.10;;;8.50;99.90;;;;;;4901693;29;20435;-94
2023/04/21 05:28:34;;;;;;;21.43;16.67;;;8.60;99.90;;;;;;4899667;29;20428;-94
2023/04/21 05:31:03;;;;;;;18.08;15.63;;;8.70;99.90;;;;;;4903269;29;20908;-94
2023/04/21 05:33:30;;;;;;;19.13;16.10;;;8.60;99.90;;;;;;4900753;29;20515;-93
2023/04/21 05:35:56;;;;;;;19.05;15.05;;;9.00;99.90;;;;;;4900296;29;20414;-92
2023/04/21 05:38:21;;;;;;;19.95;16.00;;;9.10;99.90;;;;;;4900581;29;20454;-95
2023/04/21 05:40:54;;;;;;;21.57;16.10;;;9.20;99.90;;;;;;4898670;29;20416;-90
2023/04/21 05:43:21;;;;;;;17.20;14.85;;;9.10;99.90;;;;;;4896740;29;20439;-94
2023/04/21 05:45:53;;;;;;;18.10;14.65;;;9.20;99.90;;;;;;4900496;29;20419;-94
2023/04/21 05:48:40;;;;;;;19.33;14.98;;;9.30;99.90;;;;;;4899762;29;20814;-95
2023/04/21 05:51:10;;;;;;;19.75;15.18;;;9.30;99.90;;;;;;4900470;29;20419;-93
2023/04/21 05:53:39;;;;;;;20.10;15.13;;;9.40;99.90;;;;;;4901979;29;20766;-95
2023/04/21 05:56:12;;;;;;;20.05;15.02;;;9.10;99.90;;;;;;4901540;29;20423;-95
2023/04/21 05:58:38;;;;;;;18.77;15.23;;;9.50;99.90;;;;;;4900095;29;20416;-94
2023/04/21 06:01:05;;;;;;;17.10;14.30;;;9.80;99.90;;;;;;4886939;29;20421;-94
2023/04/21 06:03:31;;;;;;;17.85;14.48;;;9.70;99.90;;;;;;4880694;29;20457;-94
2023/04/21 06:05:58;;;;;;;19.13;14.75;;;9.80;99.90;;;;;;4880813;29;20985;-91
2023/04/21 06:08:24;;;;;;;18.48;14.15;;;10.10;99.90;;;;;;4880194;29;20993;-96
2023/04/21 06:10:49;;;;;;;17.45;13.98;;;9.90;99.90;;;;;;4881656;29;20425;-90
2023/04/21 06:13:15;;;;;;;16.33;13.13;;;9.70;99.90;;;;;;4884214;29;20931;-92
2023/04/21 06:15:41;;;;;;;15.32;13.32;;;10.20;99.90;;;;;;4880461;29;20918;-90
2023/04/21 06:18:10;;;;;;;17.70;13.70;;;10.60;99.90;;;;;;4881730;29;20436;-95
2023/04/21 06:20:35;;;;;;;16.77;12.88;;;10.10;99.90;;;;;;4878630;29;20901;-93
2023/04/21 06:23:11;;;;;;;;;;;;;;;;;;;;;
2023/04/21 06:25:37;;;;;;;18.10;13.18;;;10.40;99.90;;;;;;4897262;29;20444;-93
2023/04/21 06:28:03;;;;;;;15.48;12.68;;;10.50;99.90;;;;;;4884401;29;20408;-94
2023/04/21 06:30:29;;;;;;;16.63;13.40;;;10.50;99.90;;;;;;4887321;29;20429;-95
2023/04/21 06:33:10;;;;;;;17.35;12.55;;;10.70;99.90;;;;;;4884965;29;20500;-94
2023/04/21 06:35:35;;;;;;;13.80;12.10;;;10.70;99.90;;;;;;4885995;29;20425;-95
2023/04/21 06:38:10;;;;;;;16.10;13.00;;;10.80;99.90;;;;;;4889589;29;20453;-94
2023/04/21 06:40:36;;;;;;;16.90;12.68;;;10.70;99.90;;;;;;4887222;29;20440;-94
2023/04/21 06:43:01;;;;;;;22.23;13.20;;;10.70;99.90;;;;;;4883578;29;20440;-94
2023/04/21 06:45:27;;;;;;;17.03;13.07;;;10.80;99.90;;;;;;4885547;29;20922;-95
2023/04/21 06:47:52;;;;;;;16.40;12.98;;;10.80;99.90;;;;;;4886254;29;20421;-92
2023/04/21 06:50:18;;;;;;;19.77;13.10;;;10.70;99.90;;;;;;4885751;29;21004;-93
2023/04/21 06:52:44;;;;;;;17.15;12.88;;;10.90;99.90;;;;;;4883486;29;20413;-93
2023/04/21 06:55:10;;;;;;;15.48;12.63;;;11.30;99.90;;;;;;4885979;29;20477;-94
2023/04/21 06:57:41;;;;;;;16.73;12.50;;;11.10;99.90;;;;;;4891580;29;20464;-94
2023/04/21 07:00:09;;;;;;;17.42;13.40;;;11.20;99.90;;;;;;4884245;29;20469;-96
2023/04/21 07:02:34;;;;;;;17.30;12.15;;;11.30;99.90;;;;;;4889128;29;20441;-93
2023/04/21 07:05:00;;;;;;;13.23;11.33;;;11.60;99.90;;;;;;4886508;29;20437;-93
2023/04/21 07:07:26;;;;;;;16.38;12.80;;;11.60;99.90;;;;;;4882939;29;21281;-93
2023/04/21 07:09:52;;;;;;;16.33;12.75;;;11.70;99.90;;;;;;4885394;29;20414;-93
2023/04/21 07:12:20;;;;;;;15.70;11.93;;;11.90;99.90;;;;;;4889232;29;20417;-94
2023/04/21 07:14:49;;;;;;;15.93;11.88;;;11.80;99.90;;;;;;4886652;29;20469;-94
2023/04/21 07:17:15;;;;;;;16.57;11.77;;;11.90;99.90;;;;;;4884707;29;20504;-95
2023/04/21 07:19:48;;;;;;;16.30;12.07;;;12.30;99.90;;;;;;4888093;29;20440;-94
2023/04/21 07:22:13;;;;;;;14.93;12.23;;;12.30;99.90;;;;;;4888219;29;20456;-94
2023/04/21 07:24:39;;;;;;;17.33;12.63;;;12.10;99.90;;;;;;4886499;29;20429;-94
2023/04/21 07:27:05;;;;;;;15.20;11.73;;;12.40;99.90;;;;;;4886977;29;20441;-94
2023/04/21 07:29:36;;;;;;;16.57;12.10;;;12.80;99.90;;;;;;4887713;29;20421;-94
2023/04/21 07:32:07;;;;;;;15.43;12.20;;;12.40;99.90;;;;;;4891197;29;20425;-94
2023/04/21 07:34:50;;;;;;;15.15;11.13;;;12.40;99.90;;;;;;4890384;29;20426;-93
2023/04/21 07:37:17;;;;;;;17.65;12.07;;;13.10;99.90;;;;;;4882995;29;20417;-93
2023/04/21 07:39:51;;;;;;;16.17;11.77;;;12.50;99.90;;;;;;4887557;29;20798;-95
2023/04/21 07:42:41;;;;;;;12.98;11.38;;;13.00;99.90;;;;;;4904031;29;20443;-93
2023/04/21 07:45:08;;;;;;;13.15;11.38;;;12.80;99.90;;;;;;4887923;29;20499;-95
2023/04/21 07:47:37;;;;;;;16.13;11.00;;;13.10;99.90;;;;;;4874056;29;20501;-94
2023/04/21 07:50:03;;;;;;;15.95;11.45;;;13.00;99.90;;;;;;4890777;29;20428;-95
2023/04/21 07:52:36;;;;;;;14.00;10.83;;;13.10;99.90;;;;;;4889322;29;20418;-94
2023/04/21 07:55:30;;;;;;;15.30;11.00;;;13.30;99.90;;;;;;4890268;29;20417;-93
2023/04/21 07:58:03;;;;;;;13.35;11.32;;;13.20;99.90;;;;;;4886918;29;20450;-95
2023/04/21 08:00:42;;;;;;;15.40;11.23;;;13.60;99.90;;;;;;4887088;29;20441;-96
2023/04/21 08:03:14;;;;;;;15.75;11.50;;;13.50;99.90;;;;;;4890830;29;20922;-93
2023/04/21 08:05:43;;;;;;;15.93;11.27;;;13.60;99.90;;;;;;4888794;29;20495;-95
2023/04/21 08:08:09;;;;;;;14.30;11.00;;;13.90;99.90;;;;;;4886822;29;20405;-95
2023/04/21 08:10:36;;;;;;;13.53;10.77;;;14.00;99.90;;;;;;4882678;29;20480;-95
2023/04/21 08:13:05;;;;;;;13.77;10.57;;;14.30;99.90;;;;;;4883724;29;20926;-94
2023/04/21 08:16:08;;;;;;;13.73;10.60;;;14.30;99.90;;;;;;4890406;29;20449;-94
2023/04/21 08:18:37;;;;;;;13.98;10.88;;;14.10;99.90;;;;;;4887614;29;20417;-94
2023/04/21 08:21:05;;;;;;;16.40;10.80;;;14.40;99.90;;;;;;4884370;29;20437;-94
2023/04/21 08:23:45;;;;;;;15.70;10.55;;;14.00;99.90;;;;;;4874528;29;20529;-95
2023/04/21 08:26:12;;;;;;;14.02;10.98;;;14.20;99.90;;;;;;4861454;29;20458;-92
2023/04/21 08:28:37;;;;;;;14.90;10.57;;;14.50;99.90;;;;;;4883687;29;20422;-94
2023/04/21 08:31:06;;;;;;;14.50;10.88;;;14.50;99.90;;;;;;4867696;29;20957;-94
2023/04/21 08:33:32;;;;;;;15.23;10.65;;;14.50;99.90;;;;;;4870445;29;20440;-96
2023/04/21 08:36:01;;;;;;;14.00;10.13;;;14.50;99.90;;;;;;4882963;29;20417;-94
2023/04/21 08:38:50;;;;;;;14.18;10.18;;;15.00;99.90;;;;;;4885962;29;20417;-94
2023/04/21 08:41:18;;;;;;;12.70;10.33;;;14.90;99.90;;;;;;4881480;29;20432;-94
2023/04/21 08:43:44;;;;;;;13.90;10.48;;;14.80;99.90;;;;;;4880712;29;20441;-91
2023/04/21 08:46:11;;;;;;;15.87;11.00;;;15.00;99.90;;;;;;4880745;29;20428;-91
2023/04/21 08:48:45;;;;;;;13.20;10.67;;;15.10;99.90;;;;;;4879901;29;20438;-95
2023/04/21 08:51:31;;;;;;;13.90;9.88;;;15.10;99.90;;;;;;4889080;29;20417;-94
2023/04/21 08:53:57;;;;;;;13.80;10.45;;;15.30;99.90;;;;;;4882952;29;20512;-95
2023/04/21 08:56:27;;;;;;;13.10;10.57;;;15.20;99.90;;;;;;4886731;29;20479;-95
2023/04/21 08:58:56;;;;;;;14.93;10.47;;;15.40;99.90;;;;;;4884769;29;20421;-93
2023/04/21 09:01:22;;;;;;;13.98;10.05;;;15.60;99.90;;;;;;4882672;29;20469;-91
2023/04/21 09:03:52;;;;;;;13.23;9.65;;;15.20;99.90;;;;;;4880514;29;20441;-94
2023/04/21 09:06:18;;;;;;;14.48;10.10;;;15.70;99.90;;;;;;4883052;29;20477;-94
2023/04/21 09:08:54;;;;;;;13.43;10.32;;;16.20;99.90;;;;;;4882143;29;20409;-94
2023/04/21 09:11:21;;;;;;;15.40;10.07;;;16.00;99.90;;;;;;4880651;29;20935;-92
2023/04/21 09:13:46;;;;;;;12.38;10.43;;;15.90;99.90;;;;;;4881196;29;20417;-93
2023/04/21 09:16:19;;;;;;;14.17;10.17;;;16.10;99.90;;;;;;4883784;29;20421;-93
2023/04/21 09:18:52;;;;;;;13.20;9.63;;;16.30;99.90;;;;;;4884515;29;20795;-94
2023/04/21 09:21:36;;;;;;;15.27;9.90;;;16.90;99.90;;;;;;4902450;29;20439;-92
2023/04/21 09:24:05;;;;;;;14.17;10.10;;;16.30;99.10;;;;;;4879860;29;20413;-92
2023/04/21 09:26:56;;;;;;;14.23;10.00;;;16.40;99.90;;;;;;4878151;29;20425;-95
2023/04/21 09:29:32;;;;;;;14.13;9.95;;;16.60;99.90;;;;;;4884402;29;20512;-93
2023/04/21 09:32:10;;;;;;;16.20;10.17;;;16.90;98.40;;;;;;4882340;29;20446;-95
2023/04/21 09:34:45;;;;;;;13.57;9.43;;;16.70;98.80;;;;;;4884167;29;20428;-94
2023/04/21 09:37:14;;;;;;;12.63;9.77;;;16.80;95.10;;;;;;4881791;29;20413;-94
2023/04/21 09:39:45;;;;;;;11.65;9.63;;;16.80;98.40;;;;;;4879489;29;20500;-92
2023/04/21 09:42:13;;;;;;;13.38;10.18;;;17.00;99.40;;;;;;4881805;29;20522;-93
2023/04/21 09:44:42;;;;;;;15.07;9.93;;;17.10;97.80;;;;;;4882380;29;20432;-93
2023/04/21 09:47:19;;;;;;;13.23;9.80;;;17.60;94.90;;;;;;4883836;29;20409;-94
2023/04/21 09:49:50;;;;;;;12.23;9.65;;;17.50;97.00;;;;;;4888446;29;20933;-91
2023/04/21 09:52:19;;;;;;;12.00;9.23;;;18.00;94.10;;;;;;4881820;29;20428;-93
2023/04/21 09:55:15;;;;;;;13.48;9.20;;;18.00;92.00;;;;;;4886340;29;20421;-94
2023/04/21 09:57:43;;;;;;;12.45;9.00;;;18.20;87.40;;;;;;4879221;29;20932;-94
2023/04/21 10:00:28;;;;;;;15.68;9.30;;;18.40;81.60;;;;;;4883540;29;20482;-95
2023/04/21 10:03:10;;;;;;;13.18;8.88;;;18.40;72.60;;;;;;4864101;29;20494;-94
2023/04/21 10:05:39;;;;;;;11.50;8.93;;;18.30;74.30;;;;;;4868460;29;20499;-94
2023/04/21 10:08:10;;;;;;;12.32;9.00;;;18.90;82.40;;;;;;4884002;29;20467;-95
2023/04/21 10:10:36;;;;;;;10.98;8.82;;;18.80;73.50;;;;;;4831981;29;20428;-94
2023/04/21 10:13:32;;;;;;;11.48;8.80;;;18.90;69.90;;;;;;4821750;29;20418;-94
2023/04/21 10:16:08;;;;;;;13.57;8.73;;;19.00;74.40;;;;;;4822676;29;20513;-93
2023/04/21 10:18:49;;;;;;;12.70;8.80;;;19.20;67.50;;;;;;4798783;29;20455;-93
2023/04/21 10:21:20;;;;;;;12.45;8.57;;;19.50;71.30;;;;;;4844802;29;20536;-93
2023/04/21 10:23:50;;;;;;;12.33;9.00;;;19.30;66.50;;;;;;4828299;29;20444;-93
2023/04/21 10:32:41;;;;;;;10.15;8.52;;;19.50;59.80;;;;;;4828219;29;20440;-94
2023/04/21 10:35:22;;;;;;;13.13;8.45;;;20.10;63.70;;;;;;4816767;29;20522;-95
2023/04/21 10:37:55;;;;;;;11.48;8.55;;;20.80;63.40;;;;;;4825883;29;20434;-93
2023/04/21 10:40:41;;;;;;;9.85;8.00;;;21.40;61.20;;;;;;4833523;29;20467;-94
2023/04/21 10:43:43;;;;;;;11.60;8.37;;;21.90;55.30;;;;;;4882279;29;20444;-95
2023/04/21 10:46:36;;;;;;;11.23;8.20;;;21.90;53.80;;;;;;4877716;29;20447;-93
2023/04/21 10:49:29;;;;;;;12.70;8.55;;;21.80;53.30;;;;;;4908909;29;20423;-94
2023/04/21 10:52:04;;;;;;;9.93;8.37;;;22.00;53.70;;;;;;4907351;29;20411;-94
2023/04/21 10:54:44;;;;;;;11.50;8.23;;;22.30;53.20;;;;;;4905592;29;20426;-95
2023/04/21 10:57:16;;;;;;;11.70;8.00;;;22.40;52.10;;;;;;4906550;29;20423;-95
2023/04/21 10:59:42;;;;;;;12.15;8.35;;;22.80;50.90;;;;;;4910039;29;20403;-93
2023/04/21 11:02:13;;;;;;;13.57;8.93;;;22.80;51.40;;;;;;4905199;29;20459;-92
2023/04/21 11:04:49;;;;;;;12.88;9.23;;;22.90;49.40;;;;;;4907887;29;20455;-95
2023/04/21 11:07:25;;;;;;;10.68;8.13;;;23.00;51.10;;;;;;4905360;29;20524;-95
2023/04/21 11:10:08;;;;;;;10.07;8.45;;;23.10;49.30;;;;;;4909197;29;20423;-96
2023/04/21 11:12:37;;;;;;;10.43;8.25;;;23.20;48.40;;;;;;4899310;29;20788;-92
2023/04/21 11:15:09;;;;;;;12.20;8.60;;;23.40;49.00;;;;;;4903988;29;20412;-93
2023/04/21 11:17:37;;;;;;;11.30;8.55;;;23.30;49.60;;;;;;4900072;29;20424;-88
2023/04/21 11:20:05;;;;;;;8.85;7.80;;;23.70;47.80;;;;;;4898164;29;20501;-91
2023/04/21 11:22:31;;;;;;;9.70;8.52;;;23.90;48.20;;;;;;4898060;29;20439;-92
2023/04/21 11:24:57;;;;;;;10.60;8.23;;;23.70;46.00;;;;;;4896907;29;20507;-89
2023/04/21 11:27:26;;;;;;;8.80;7.38;;;23.50;46.30;;;;;;4913757;29;20516;-89
2023/04/21 11:29:52;;;;;;;10.83;7.40;;;23.90;48.00;;;;;;4912297;29;20430;-91
2023/04/21 11:32:17;;;;;;;9.23;7.40;;;23.80;45.00;;;;;;4930774;29;20408;-87
2023/04/21 11:34:44;;;;;;;10.53;7.60;;;23.80;46.30;;;;;;4896903;29;20411;-88
2023/04/21 11:37:15;;;;;;;10.33;7.37;;;23.70;45.90;;;;;;4897970;29;20436;-90
2023/04/21 11:39:42;;;;;;;10.53;7.63;;;23.30;45.60;;;;;;4913603;29;20419;-88
2023/04/21 11:42:09;;;;;;;9.50;7.00;;;23.30;45.80;;;;;;4912902;29;20447;-88
2023/04/21 11:44:40;;;;;;;8.80;6.80;;;23.40;45.20;;;;;;4913547;29;20423;-88
2023/04/21 11:47:21;;;;;;;9.45;6.80;;;23.60;46.10;;;;;;4896272;29;20925;-90
2023/04/21 11:49:53;;;;;;;8.77;6.93;;;24.00;44.80;;;;;;4897532;29;20486;-92
2023/04/21 11:52:31;;;;;;;10.95;6.18;;;24.40;44.50;;;;;;4896943;29;21385;-88
2023/04/21 11:55:03;;;;;;;8.57;6.38;;;24.30;42.80;;;;;;4897285;29;20438;-89
2023/04/21 11:57:31;;;;;;;10.02;6.63;;;23.90;43.10;;;;;;4898049;29;20435;-91
2023/04/21 12:00:15;;;;;;;9.82;6.68;;;23.00;43.50;;;;;;4896637;29;20463;-87
2023/04/21 12:02:42;;;;;;;11.00;6.55;;;22.80;46.20;;;;;;4897309;29;20439;-89
2023/04/21 12:05:10;;;;;;;9.25;6.15;;;22.60;46.50;;;;;;4911985;29;20415;-90
2023/04/21 12:07:37;;;;;;;9.70;6.10;;;22.60;46.30;;;;;;4897218;29;20416;-89
2023/04/21 12:10:21;;;;;;;10.27;5.80;;;22.20;45.90;;;;;;4880742;29;20452;-83
2023/04/21 12:12:47;;;;;;;8.48;6.00;;;22.00;46.30;;;;;;4877197;29;20480;-87
2023/04/21 12:15:22;;;;;;;9.35;5.88;;;21.80;47.90;;;;;;4878121;29;20427;-87
2023/04/21 12:17:52;;;;;;;9.13;5.72;;;21.50;47.60;;;;;;4876067;29;20436;-90
2023/04/21 12:20:21;;;;;;;9.27;5.60;;;21.50;49.10;;;;;;4893032;29;20784;-86
2023/04/21 12:22:48;;;;;;;7.97;4.93;;;21.60;48.60;;;;;;4892702;29;20516;-87
2023/04/21 12:25:14;;;;;;;8.48;5.22;;;21.40;47.60;;;;;;4875724;29;20416;-88
2023/04/21 12:27:50;;;;;;;8.90;4.90;;;21.40;48.50;;;;;;4893850;29;20432;-89
2023/04/21 12:30:17;;;;;;;9.48;5.10;;;21.90;49.10;;;;;;4891643;29;20413;-88
2023/04/21 12:32:43;;;;;;;9.90;4.13;;;22.00;48.40;;;;;;4877771;29;20771;-89
2023/04/21 12:35:09;;;;;;;8.93;4.03;;;22.50;45.50;;;;;;4892445;29;20429;-87
2023/04/21 12:37:35;;;;;;;8.35;4.28;;;22.20;44.70;;;;;;4893340;29;20436;-88
2023/04/21 12:40:01;;;;;;;6.53;3.10;;;22.20;44.70;;;;;;4877074;29;20433;-90
2023/04/21 12:42:26;;;;;;;6.32;3.00;;;22.00;43.60;;;;;;4878365;29;20535;-88
2023/04/21 12:44:52;;;;;;;6.97;2.90;;;22.20;43.30;;;;;;4877880;29;20503;-92
2023/04/21 12:47:18;;;;;;;6.50;2.95;;;22.40;42.10;;;;;;4877020;29;20414;-86
2023/04/21 12:49:43;;;;;;;6.10;3.20;;;22.70;43.60;;;;;;4893828;29;20433;-92
2023/04/21 12:52:09;;;;;;;6.20;2.70;;;22.70;41.20;;;;;;4892094;29;20429;-89
2023/04/21 12:54:35;;;;;;;6.47;2.70;;;22.70;41.80;;;;;;4878113;29;20417;-90
2023/04/21 12:57:01;;;;;;;8.50;3.30;;;22.50;41.50;;;;;;4892647;29;20473;-92
2023/04/21 12:59:26;;;;;;;7.80;3.30;;;22.20;41.30;;;;;;4877437;29;20428;-89
2023/04/21 13:01:52;;;;;;;9.10;3.65;;;22.10;41.80;;;;;;4869876;29;20502;-91
2023/04/21 13:04:18;;;;;;;10.27;3.80;;;21.80;41.30;;;;;;4857823;29;20912;-88
2023/04/21 13:06:44;;;;;;;6.55;3.42;;;21.90;43.10;;;;;;4859386;29;20452;-88
2023/04/21 13:09:10;;;;;;;7.00;3.67;;;21.50;42.70;;;;;;4857137;29;20422;-88
2023/04/21 13:11:36;;;;;;;6.53;3.45;;;21.70;43.40;;;;;;4873999;29;20430;-90